Time;durP1;ratioP1;P1;durP2;ratioP2;P2;SDS_P1;SDS_P2;PMS_P1;PMS_P2;Temp;Humidity;BMP_temperature;BMP_pressure;BME280_temperature;BME280_humidity;BME280_pressure;Samples;Min_cycle;Max_cycle;Signal;HPM_P1;HPM_P2
2022/08/25 00:02:02;;;;;;;11.15;6.80;;;21.10;99.90;;;;;;5125033;27;20050;-66
2022/08/25 00:04:28;;;;;;;9.85;7.25;;;21.10;99.90;;;;;;5113093;27;20043;-67
2022/08/25 00:06:54;;;;;;;11.85;6.80;;;21.10;99.90;;;;;;5122000;27;20046;-66
2022/08/25 00:09:25;;;;;;;9.73;6.72;;;21.10;99.90;;;;;;5116920;27;20104;-66
2022/08/25 00:11:52;;;;;;;8.60;6.28;;;21.00;99.90;;;;;;5118835;27;20126;-67
2022/08/25 00:14:21;;;;;;;20.15;6.40;;;21.00;99.90;;;;;;5129303;27;20717;-67
2022/08/25 00:16:47;;;;;;;9.07;5.75;;;21.00;99.90;;;;;;5113144;27;20050;-65
2022/08/25 00:19:18;;;;;;;8.07;6.03;;;21.00;99.90;;;;;;5132392;27;20039;-67
2022/08/25 00:21:45;;;;;;;11.35;5.88;;;21.00;99.90;;;;;;5132313;27;20031;-67
2022/08/25 00:24:13;;;;;;;11.25;6.03;;;21.00;99.90;;;;;;5120551;27;20131;-67
2022/08/25 00:26:43;;;;;;;;;;;21.00;99.90;;;;;;5128775;27;20043;-66
2022/08/25 00:29:10;;;;;;;9.10;5.35;;;20.90;99.90;;;;;;5137901;27;21502;-66
2022/08/25 00:31:36;;;;;;;9.27;5.47;;;20.90;99.90;;;;;;5127207;27;20039;-67
2022/08/25 00:34:05;;;;;;;11.75;5.05;;;20.90;99.90;;;;;;5116636;27;20472;-66
2022/08/25 00:36:30;;;;;;;11.65;4.93;;;20.90;99.90;;;;;;5113251;27;20071;-67
2022/08/25 00:38:56;;;;;;;9.95;4.90;;;20.90;99.90;;;;;;5118898;27;20078;-67
2022/08/25 00:41:24;;;;;;;8.07;5.07;;;20.90;99.90;;;;;;5117519;27;20047;-65
2022/08/25 00:43:55;;;;;;;;;;;20.90;99.90;;;;;;5098184;27;20046;-66
2022/08/25 00:46:43;;;;;;;10.13;4.45;;;20.90;99.90;;;;;;5119389;27;19924;-67
2022/08/25 00:49:20;;;;;;;9.80;4.38;;;20.90;99.90;;;;;;5117832;27;20083;-67
2022/08/25 00:51:54;;;;;;;6.90;4.20;;;20.90;99.90;;;;;;5095338;27;20458;-65
2022/08/25 00:54:27;;;;;;;7.40;4.40;;;20.90;99.90;;;;;;5130938;27;20039;-66
2022/08/25 00:56:55;;;;;;;10.88;4.53;;;20.90;99.90;;;;;;5126728;27;20058;-67
2022/08/25 00:59:23;;;;;;;16.02;5.22;;;20.90;99.90;;;;;;5127775;27;20135;-66
2022/08/25 01:01:50;;;;;;;10.00;4.50;;;20.90;99.90;;;;;;5110882;27;20048;-66
2022/08/25 01:04:16;;;;;;;10.52;3.92;;;20.80;99.90;;;;;;5118626;27;20035;-66
2022/08/25 01:06:45;;;;;;;14.00;4.80;;;20.90;99.90;;;;;;5123543;27;20039;-66
2022/08/25 01:09:13;;;;;;;8.48;4.28;;;20.80;99.90;;;;;;5128077;27;20054;-66
2022/08/25 01:11:40;;;;;;;7.95;4.07;;;20.80;99.90;;;;;;5123911;27;20079;-66
2022/08/25 01:14:08;;;;;;;8.25;4.20;;;20.80;99.90;;;;;;5113612;27;20044;-66
2022/08/25 01:16:35;;;;;;;13.88;4.78;;;20.80;99.90;;;;;;5117149;27;20100;-66
2022/08/25 01:19:02;;;;;;;6.90;4.28;;;20.80;99.90;;;;;;5114697;27;20078;-65
2022/08/25 01:21:30;;;;;;;7.85;4.40;;;20.80;99.90;;;;;;5125969;27;20055;-66
2022/08/25 01:23:58;;;;;;;7.07;4.15;;;20.80;99.90;;;;;;5122161;27;20122;-66
2022/08/25 01:26:27;;;;;;;7.32;3.92;;;20.80;99.90;;;;;;5106983;28;20462;-66
2022/08/25 01:31:41;;;;;;;7.40;4.07;;;20.80;99.90;;;;;;5124996;27;20043;-66
2022/08/25 01:34:11;;;;;;;8.27;4.00;;;20.80;99.90;;;;;;5138346;27;20039;-65
2022/08/25 01:36:37;;;;;;;15.00;4.45;;;20.70;99.90;;;;;;5112275;27;20061;-67
2022/08/25 01:39:03;;;;;;;7.25;4.13;;;20.70;99.90;;;;;;5110275;27;20039;-65
2022/08/25 01:41:49;;;;;;;6.43;3.88;;;20.70;99.90;;;;;;5122616;27;20054;-66
2022/08/25 01:44:16;;;;;;;9.50;4.00;;;20.70;99.90;;;;;;5076858;27;20170;-67
2022/08/25 01:46:43;;;;;;;11.33;3.53;;;20.70;99.90;;;;;;5129859;27;20068;-65
2022/08/25 01:49:09;;;;;;;6.57;4.25;;;20.70;99.90;;;;;;5112604;27;20046;-66
2022/08/25 01:52:10;;;;;;;9.55;3.70;;;20.60;99.90;;;;;;5106751;27;20387;-66
2022/08/25 01:54:36;;;;;;;21.15;4.32;;;20.60;99.90;;;;;;5071192;28;20046;-66
2022/08/25 01:57:02;;;;;;;7.50;3.95;;;20.60;99.90;;;;;;5117526;27;20039;-65
2022/08/25 01:59:28;;;;;;;10.18;4.38;;;20.60;99.90;;;;;;5113324;28;20114;-66
2022/08/25 02:01:54;;;;;;;9.13;4.15;;;20.60;99.90;;;;;;5134937;27;20127;-67
2022/08/25 02:04:20;;;;;;;8.02;4.13;;;20.50;99.90;;;;;;5112945;27;20044;-66
2022/08/25 02:06:49;;;;;;;7.57;4.05;;;20.60;99.90;;;;;;5105042;28;20402;-67
2022/08/25 02:09:16;;;;;;;10.63;4.43;;;20.50;99.90;;;;;;5124275;27;20104;-66
2022/08/25 02:11:45;;;;;;;9.93;4.38;;;20.50;99.90;;;;;;5120427;28;20044;-67
2022/08/25 02:14:12;;;;;;;7.97;3.92;;;20.50;99.90;;;;;;5111441;28;20039;-66
2022/08/25 02:16:44;;;;;;;8.10;4.70;;;20.50;99.90;;;;;;5121869;27;20035;-66
2022/08/25 02:19:11;;;;;;;11.65;4.28;;;20.40;99.90;;;;;;5123155;27;20051;-66
2022/08/25 02:21:38;;;;;;;8.13;5.32;;;20.40;99.90;;;;;;5125969;27;20040;-66
2022/08/25 02:24:05;;;;;;;6.78;4.53;;;20.40;99.90;;;;;;5101426;27;20507;-65
2022/08/25 02:26:31;;;;;;;10.18;4.30;;;20.40;99.90;;;;;;5121943;27;20043;-67
2022/08/25 02:28:57;;;;;;;8.02;4.28;;;20.30;99.90;;;;;;5134213;27;20043;-66
2022/08/25 02:31:24;;;;;;;9.98;4.15;;;20.30;99.90;;;;;;5124590;27;20039;-67
2022/08/25 02:33:51;;;;;;;8.88;4.50;;;20.30;99.90;;;;;;5131799;27;20047;-66
2022/08/25 02:36:17;;;;;;;9.87;4.50;;;20.20;99.90;;;;;;5122574;27;20050;-66
2022/08/25 02:38:43;;;;;;;9.73;4.47;;;20.20;99.90;;;;;;5123296;27;20035;-67
2022/08/25 02:41:12;;;;;;;8.45;4.75;;;20.20;99.90;;;;;;5131921;27;20090;-66
2022/08/25 02:43:42;;;;;;;8.25;4.43;;;20.20;99.90;;;;;;5147916;27;20043;-66
2022/08/25 02:46:10;;;;;;;8.80;4.05;;;20.20;99.90;;;;;;5134499;27;20075;-66
2022/08/25 02:48:36;;;;;;;;;;;20.10;99.90;;;;;;5130427;27;20035;-65
2022/08/25 02:51:04;;;;;;;6.68;4.05;;;20.10;99.90;;;;;;5136866;27;20068;-66
2022/08/25 02:53:30;;;;;;;11.75;4.07;;;20.10;99.90;;;;;;5131555;27;20161;-67
2022/08/25 02:55:56;;;;;;;12.07;3.95;;;20.10;99.90;;;;;;5119399;27;20131;-65
2022/08/25 02:58:22;;;;;;;6.78;4.15;;;20.00;99.90;;;;;;5137931;27;20075;-66
2022/08/25 03:00:51;;;;;;;7.20;4.63;;;20.00;99.90;;;;;;5138213;27;20043;-66
2022/08/25 03:03:18;;;;;;;10.43;3.83;;;20.00;99.90;;;;;;5123080;27;20402;-66
2022/08/25 03:05:45;;;;;;;6.85;3.78;;;20.00;99.90;;;;;;5135538;27;20068;-67
2022/08/25 03:08:11;;;;;;;8.93;4.65;;;19.90;99.90;;;;;;5127879;27;20055;-67
2022/08/25 03:10:37;;;;;;;8.20;3.80;;;19.90;99.90;;;;;;5124696;27;20047;-65
2022/08/25 03:13:06;;;;;;;9.35;3.95;;;20.00;99.90;;;;;;5131492;27;20039;-66
2022/08/25 03:15:32;;;;;;;7.75;4.45;;;19.90;99.90;;;;;;5124943;27;20048;-66
2022/08/25 03:17:58;;;;;;;6.53;4.13;;;19.90;99.90;;;;;;5115787;27;20046;-66
2022/08/25 03:20:25;;;;;;;9.57;3.72;;;19.90;99.90;;;;;;5134467;27;20039;-66
2022/08/25 03:22:51;;;;;;;8.75;4.65;;;19.90;99.90;;;;;;5126140;27;20185;-67
2022/08/25 03:28:03;;;;;;;8.05;4.47;;;19.90;99.90;;;;;;5119673;27;20083;-66
2022/08/25 03:30:28;;;;;;;7.40;3.92;;;19.90;99.90;;;;;;5110314;27;20071;-66
2022/08/25 03:32:55;;;;;;;7.95;4.20;;;19.80;99.90;;;;;;5126789;27;20078;-66
2022/08/25 03:35:21;;;;;;;9.10;4.03;;;19.80;99.90;;;;;;5117453;27;20414;-66
2022/08/25 03:37:47;;;;;;;13.13;4.18;;;19.80;99.90;;;;;;5138613;27;20078;-66
2022/08/25 03:40:16;;;;;;;8.10;3.97;;;19.80;99.90;;;;;;5115253;27;20089;-66
2022/08/25 03:42:44;;;;;;;10.27;4.45;;;19.80;99.90;;;;;;5126367;27;20042;-66
2022/08/25 03:45:10;;;;;;;;;;;19.80;99.90;;;;;;5130161;27;20043;-66
2022/08/25 03:47:39;;;;;;;10.15;3.88;;;19.70;99.90;;;;;;5134054;27;19938;-66
2022/08/25 03:50:07;;;;;;;7.25;3.90;;;19.70;99.90;;;;;;5124880;27;20050;-65
2022/08/25 03:52:33;;;;;;;9.25;4.75;;;19.70;99.90;;;;;;5127638;27;20031;-65
2022/08/25 03:54:59;;;;;;;6.47;4.03;;;19.70;99.90;;;;;;5120541;27;20046;-66
2022/08/25 03:57:25;;;;;;;13.82;4.03;;;19.60;99.90;;;;;;5132599;27;20043;-66
2022/08/25 03:59:51;;;;;;;12.05;4.22;;;19.60;99.90;;;;;;5125088;27;20046;-66
2022/08/25 04:02:17;;;;;;;9.57;4.10;;;19.60;99.90;;;;;;5129146;27;20142;-66
2022/08/25 04:04:43;;;;;;;8.93;4.28;;;19.60;99.90;;;;;;5130355;27;20071;-65
2022/08/25 04:07:09;;;;;;;10.25;4.45;;;19.60;99.90;;;;;;5127682;27;20591;-65
2022/08/25 04:09:34;;;;;;;8.95;4.47;;;19.60;99.90;;;;;;5130346;27;20511;-66
2022/08/25 04:12:00;;;;;;;9.85;4.28;;;19.50;99.90;;;;;;5146464;27;20057;-66
2022/08/25 04:14:26;;;;;;;7.63;4.10;;;19.50;99.90;;;;;;5146847;27;20043;-65
2022/08/25 04:16:52;;;;;;;7.15;4.10;;;19.50;99.90;;;;;;5116392;27;20040;-65
2022/08/25 04:19:19;;;;;;;9.60;4.45;;;19.50;99.90;;;;;;5115943;27;20043;-66
2022/08/25 04:21:45;;;;;;;13.57;4.77;;;19.50;99.90;;;;;;5130044;27;20076;-66
2022/08/25 04:24:12;;;;;;;9.93;5.03;;;19.50;99.90;;;;;;5114530;27;20057;-66
2022/08/25 04:26:41;;;;;;;13.13;4.57;;;19.40;99.90;;;;;;5126185;27;20070;-66
2022/08/25 04:29:09;;;;;;;8.13;4.57;;;19.50;99.90;;;;;;5115394;27;20047;-65
2022/08/25 04:31:37;;;;;;;10.93;4.57;;;19.40;99.90;;;;;;5111628;27;20428;-66
2022/08/25 04:34:04;;;;;;;10.85;5.22;;;19.40;99.90;;;;;;5123926;27;20094;-66
2022/08/25 04:36:31;;;;;;;11.43;4.30;;;19.40;99.90;;;;;;5125286;27;20062;-65
2022/08/25 04:38:56;;;;;;;12.73;4.68;;;19.40;99.90;;;;;;5128274;27;20082;-65
2022/08/25 04:41:23;;;;;;;9.35;4.90;;;19.40;99.90;;;;;;5127160;27;20450;-65
2022/08/25 04:43:50;;;;;;;8.17;4.23;;;19.40;99.90;;;;;;5129619;27;20040;-66
2022/08/25 04:46:21;;;;;;;13.55;4.97;;;19.40;99.90;;;;;;5100405;28;20467;-65
2022/08/25 04:48:48;;;;;;;9.65;4.93;;;19.40;99.90;;;;;;5100615;27;20112;-66
2022/08/25 04:51:18;;;;;;;9.95;4.60;;;19.30;99.90;;;;;;5123147;27;20043;-66
2022/08/25 04:53:44;;;;;;;12.68;4.70;;;19.30;99.90;;;;;;5134450;27;20040;-65
2022/08/25 04:56:12;;;;;;;9.77;4.88;;;19.40;99.90;;;;;;5126976;27;20069;-66
2022/08/25 04:58:39;;;;;;;13.57;4.90;;;19.30;99.90;;;;;;5118918;27;20110;-65
2022/08/25 05:01:07;;;;;;;12.32;5.00;;;19.30;99.90;;;;;;5122854;27;20573;-66
2022/08/25 05:03:33;;;;;;;13.10;4.95;;;19.30;99.90;;;;;;5120512;27;20039;-66
2022/08/25 05:06:00;;;;;;;14.70;4.80;;;19.30;99.90;;;;;;5117868;27;20355;-66
2022/08/25 05:08:26;;;;;;;10.82;4.82;;;19.30;99.90;;;;;;5115374;27;20061;-66
2022/08/25 05:10:53;;;;;;;14.60;5.40;;;19.30;99.90;;;;;;5126080;27;20048;-65
2022/08/25 05:13:20;;;;;;;12.82;5.57;;;19.30;99.90;;;;;;5121507;27;20044;-67
2022/08/25 05:15:54;;;;;;;9.05;4.80;;;19.30;99.90;;;;;;5124147;27;20051;-67
2022/08/25 05:18:22;;;;;;;9.10;5.00;;;19.30;99.90;;;;;;5146538;27;20210;-67
2022/08/25 05:20:48;;;;;;;16.05;5.32;;;19.30;99.90;;;;;;5129723;27;20043;-66
2022/08/25 05:23:14;;;;;;;8.38;5.50;;;19.30;99.90;;;;;;5107737;27;20458;-65
2022/08/25 05:25:41;;;;;;;8.50;5.15;;;19.30;99.90;;;;;;5118653;27;20088;-67
2022/08/25 05:28:08;;;;;;;6.67;4.80;;;19.30;99.90;;;;;;5144861;27;20358;-67
2022/08/25 05:30:40;;;;;;;10.43;5.60;;;19.30;99.90;;;;;;5099997;27;20289;-67
2022/08/25 05:33:06;;;;;;;14.60;5.93;;;19.40;99.90;;;;;;5094393;28;20051;-66
2022/08/25 05:35:31;;;;;;;10.77;5.70;;;19.40;99.90;;;;;;5116206;27;20520;-66
2022/08/25 05:37:57;;;;;;;11.85;5.85;;;19.40;99.90;;;;;;5121673;27;20486;-67
2022/08/25 05:40:24;;;;;;;11.40;5.45;;;19.40;99.90;;;;;;5128238;27;20043;-66
2022/08/25 05:42:50;;;;;;;9.02;6.15;;;19.40;99.90;;;;;;5121748;27;20039;-67
2022/08/25 05:45:16;;;;;;;10.65;5.97;;;19.50;99.90;;;;;;5125777;27;20133;-67
2022/08/25 05:47:42;;;;;;;11.60;6.15;;;19.50;99.90;;;;;;5119303;27;20076;-67
2022/08/25 05:50:09;;;;;;;16.98;7.05;;;19.50;99.90;;;;;;5123153;27;20047;-67
2022/08/25 05:52:35;;;;;;;9.63;5.65;;;19.60;99.90;;;;;;5118306;27;20062;-67
2022/08/25 05:55:00;;;;;;;13.13;5.63;;;19.60;99.90;;;;;;5117199;27;20032;-66
2022/08/25 05:57:26;;;;;;;12.95;6.22;;;19.70;99.90;;;;;;5108434;28;20080;-67
2022/08/25 05:59:52;;;;;;;12.27;6.07;;;19.80;99.90;;;;;;5112482;28;20097;-66
2022/08/25 06:05:03;;;;;;;8.70;5.97;;;19.90;99.90;;;;;;5110638;28;20081;-67
2022/08/25 06:07:28;;;;;;;10.20;5.43;;;20.00;99.90;;;;;;5122056;27;20474;-67
2022/08/25 06:09:54;;;;;;;9.68;6.43;;;20.10;99.90;;;;;;5109869;28;20079;-67
2022/08/25 06:12:20;;;;;;;10.73;5.97;;;20.20;99.90;;;;;;5113189;28;20111;-68
2022/08/25 06:14:48;;;;;;;13.13;6.13;;;20.40;99.90;;;;;;5122261;27;20486;-67
2022/08/25 06:17:15;;;;;;;16.13;5.82;;;20.60;99.90;;;;;;5127371;28;20044;-67
2022/08/25 06:19:40;;;;;;;9.07;5.70;;;20.90;99.90;;;;;;5125061;27;20440;-66
2022/08/25 06:22:06;;;;;;;13.40;6.18;;;21.40;99.90;;;;;;5129612;28;20043;-66
2022/08/25 06:24:32;;;;;;;10.20;6.53;;;21.80;99.90;;;;;;5118436;28;20374;-67
2022/08/25 06:26:59;;;;;;;13.68;6.63;;;22.20;99.90;;;;;;5101340;28;20104;-68
2022/08/25 06:29:25;;;;;;;15.98;6.20;;;22.50;99.90;;;;;;5128938;28;20138;-67
2022/08/25 06:31:51;;;;;;;9.90;5.78;;;22.80;99.90;;;;;;5114869;27;20085;-67
2022/08/25 06:34:17;;;;;;;14.30;6.43;;;23.00;99.40;;;;;;5093351;28;20044;-67
2022/08/25 06:36:43;;;;;;;17.00;6.60;;;23.20;98.40;;;;;;5109623;28;20069;-67
2022/08/25 06:39:09;;;;;;;19.35;6.38;;;23.30;98.60;;;;;;5111452;27;20636;-67
2022/08/25 06:41:35;;;;;;;11.85;6.10;;;23.50;98.50;;;;;;5128837;28;20118;-67
2022/08/25 06:44:01;;;;;;;11.43;6.05;;;23.50;98.30;;;;;;5130903;28;20088;-66
2022/08/25 06:46:28;;;;;;;12.57;6.07;;;23.40;98.20;;;;;;5127370;27;20113;-66
2022/08/25 06:48:55;;;;;;;11.00;6.25;;;23.30;98.20;;;;;;5132201;27;20396;-67
2022/08/25 06:51:22;;;;;;;15.98;7.07;;;23.40;98.20;;;;;;5125027;27;20083;-66
2022/08/25 06:53:49;;;;;;;13.82;6.10;;;23.70;98.10;;;;;;5111951;27;20039;-68
2022/08/25 06:56:16;;;;;;;11.07;6.23;;;24.10;97.80;;;;;;5109690;28;20079;-67
2022/08/25 06:58:42;;;;;;;;;;;24.30;97.10;;;;;;5131452;27;20439;-67
2022/08/25 07:01:11;;;;;;;14.15;5.93;;;24.50;96.20;;;;;;5129075;27;19919;-66
2022/08/25 07:03:37;;;;;;;12.00;5.88;;;24.60;96.80;;;;;;5111454;27;20062;-68
2022/08/25 07:06:03;;;;;;;14.07;5.95;;;24.70;96.30;;;;;;5115142;27;20683;-68
2022/08/25 07:08:30;;;;;;;10.38;5.70;;;24.60;95.90;;;;;;5115003;28;20051;-67
2022/08/25 07:10:56;;;;;;;14.63;6.28;;;24.50;96.30;;;;;;5126717;27;20089;-65
2022/08/25 07:13:25;;;;;;;12.37;5.97;;;24.40;96.50;;;;;;5135060;27;20132;-67
2022/08/25 07:15:54;;;;;;;15.32;6.10;;;24.30;96.40;;;;;;5127540;27;20078;-67
2022/08/25 07:18:21;;;;;;;11.95;5.57;;;24.20;96.20;;;;;;5133195;27;20502;-67
2022/08/25 07:20:47;;;;;;;24.52;5.47;;;24.20;96.40;;;;;;5121160;27;20466;-67
2022/08/25 07:23:13;;;;;;;11.57;6.22;;;24.10;96.40;;;;;;5119932;27;20075;-67
2022/08/25 07:25:38;;;;;;;13.90;6.28;;;24.00;96.00;;;;;;5114663;27;20070;-68
2022/08/25 07:28:04;;;;;;;14.65;5.80;;;24.00;96.10;;;;;;5114920;28;20062;-68
2022/08/25 07:30:30;;;;;;;11.93;5.70;;;24.00;96.20;;;;;;5109225;27;20039;-68
2022/08/25 07:32:56;;;;;;;13.57;5.88;;;24.10;96.50;;;;;;5130233;27;20043;-68
2022/08/25 07:35:24;;;;;;;10.80;5.32;;;24.20;96.40;;;;;;5134476;27;20054;-67
2022/08/25 07:37:51;;;;;;;;;;;24.30;96.40;;;;;;5132881;27;20047;-67
2022/08/25 07:40:38;;;;;;;17.40;6.00;;;24.40;96.40;;;;;;5108419;27;19919;-66
2022/08/25 07:43:09;;;;;;;11.18;5.75;;;24.50;96.30;;;;;;5130888;27;20043;-66
2022/08/25 07:45:38;;;;;;;32.65;7.72;;;24.60;96.00;;;;;;5128326;27;20059;-67
2022/08/25 07:48:08;;;;;;;10.73;5.50;;;24.60;95.80;;;;;;5115219;27;20035;-68
2022/08/25 07:50:37;;;;;;;51.20;7.50;;;24.70;96.20;;;;;;5116282;27;20122;-68
2022/08/25 07:53:04;;;;;;;22.08;5.63;;;24.80;95.60;;;;;;5120383;27;20101;-67
2022/08/25 07:55:30;;;;;;;8.65;4.43;;;24.90;95.30;;;;;;5128879;27;20405;-71
2022/08/25 07:57:58;;;;;;;16.67;5.50;;;25.00;94.90;;;;;;5128965;27;20574;-69
2022/08/25 08:00:29;;;;;;;15.73;5.25;;;25.10;94.90;;;;;;5120192;27;20069;-69
2022/08/25 08:03:01;;;;;;;10.00;5.28;;;25.10;94.60;;;;;;5118579;27;20040;-68
2022/08/25 08:05:28;;;;;;;13.02;5.18;;;25.30;94.80;;;;;;5128480;27;20043;-68
2022/08/25 08:07:55;;;;;;;11.30;5.38;;;25.40;94.50;;;;;;5116563;27;20052;-67
2022/08/25 08:10:21;;;;;;;10.30;5.00;;;25.50;94.30;;;;;;5118115;27;20130;-66
2022/08/25 08:12:48;;;;;;;10.02;5.22;;;25.60;94.30;;;;;;5123845;27;20110;-68
2022/08/25 08:15:14;;;;;;;8.20;4.95;;;25.70;94.30;;;;;;5127898;27;20445;-67
2022/08/25 08:17:40;;;;;;;14.75;5.13;;;25.90;94.20;;;;;;5128153;27;20043;-69
2022/08/25 08:20:09;;;;;;;9.63;4.70;;;26.00;93.90;;;;;;5120872;27;20160;-66
2022/08/25 08:22:39;;;;;;;9.45;4.95;;;26.10;93.70;;;;;;5120795;27;20435;-68
2022/08/25 08:25:07;;;;;;;13.25;4.70;;;26.30;93.50;;;;;;5124279;27;20131;-67
2022/08/25 08:27:33;;;;;;;15.27;5.03;;;26.40;93.50;;;;;;5128276;27;20070;-67
2022/08/25 08:30:00;;;;;;;11.90;4.85;;;26.60;93.30;;;;;;5116782;27;20432;-68
2022/08/25 08:32:26;;;;;;;10.43;4.60;;;26.70;93.20;;;;;;5127526;27;20044;-67
2022/08/25 08:34:51;;;;;;;8.32;4.43;;;26.80;92.60;;;;;;5130276;27;20046;-67
2022/08/25 08:37:18;;;;;;;12.38;4.55;;;26.90;92.40;;;;;;5123507;27;20032;-68
2022/08/25 08:39:46;;;;;;;12.30;5.43;;;27.00;92.30;;;;;;5130788;27;20081;-67
2022/08/25 08:42:28;;;;;;;9.38;4.65;;;27.20;92.20;;;;;;5126365;27;20048;-66
2022/08/25 08:45:03;;;;;;;11.80;4.38;;;27.30;91.80;;;;;;5127350;27;20127;-66
2022/08/25 08:47:54;;;;;;;10.02;4.53;;;27.40;91.60;;;;;;5100343;27;20035;-66
2022/08/25 08:50:27;;;;;;;11.27;5.35;;;27.50;91.50;;;;;;5126301;27;20058;-66
2022/08/25 08:53:11;;;;;;;7.40;4.40;;;27.60;91.30;;;;;;5118372;27;20066;-67
2022/08/25 08:55:50;;;;;;;7.38;4.05;;;27.70;90.60;;;;;;5121223;27;20035;-67
2022/08/25 08:58:22;;;;;;;10.57;4.65;;;27.70;90.40;;;;;;5124050;27;20099;-67
2022/08/25 09:00:57;;;;;;;10.55;4.18;;;27.90;90.40;;;;;;5115213;27;20051;-67
2022/08/25 09:03:40;;;;;;;10.20;4.35;;;28.00;90.40;;;;;;5115872;27;20035;-67
2022/08/25 09:06:25;;;;;;;7.65;4.05;;;28.10;89.10;;;;;;5123668;27;20077;-68
2022/08/25 09:08:54;;;;;;;11.75;4.25;;;28.30;89.40;;;;;;5126301;27;20082;-66
2022/08/25 09:11:42;;;;;;;12.70;4.43;;;28.50;89.70;;;;;;5120902;27;20474;-66
2022/08/25 09:14:38;;;;;;;8.20;3.60;;;28.60;88.50;;;;;;5116152;27;20067;-67
2022/08/25 09:17:26;;;;;;;9.60;4.15;;;28.70;87.80;;;;;;5119269;27;20531;-67
2022/08/25 09:20:01;;;;;;;11.75;4.32;;;28.90;86.80;;;;;;5117758;27;20046;-66
2022/08/25 09:22:59;;;;;;;9.10;3.63;;;29.00;86.50;;;;;;5121442;27;20470;-66
2022/08/25 09:25:50;;;;;;;13.93;4.10;;;29.20;87.20;;;;;;5123057;27;20039;-67
2022/08/25 09:28:24;;;;;;;9.60;3.88;;;29.40;86.00;;;;;;5115681;27;20046;-69
2022/08/25 09:31:01;;;;;;;11.40;3.58;;;29.50;85.50;;;;;;5121691;27;20089;-68
2022/08/25 09:33:30;;;;;;;14.38;3.70;;;29.50;83.00;;;;;;5111374;27;20040;-67
2022/08/25 09:35:57;;;;;;;10.38;3.58;;;29.50;83.80;;;;;;5117186;27;20096;-68
2022/08/25 09:38:23;;;;;;;10.88;3.65;;;29.60;82.50;;;;;;5115318;27;20047;-66
2022/08/25 09:40:54;;;;;;;6.85;3.50;;;29.60;81.90;;;;;;5120977;27;20043;-66
2022/08/25 09:43:30;;;;;;;6.43;3.53;;;29.60;82.20;;;;;;5118943;27;20089;-66
2022/08/25 09:46:04;;;;;;;9.38;3.75;;;29.70;81.80;;;;;;5117516;27;20050;-69
2022/08/25 09:48:36;;;;;;;13.70;3.50;;;29.90;80.50;;;;;;5115195;27;20038;-67
2022/08/25 09:51:17;;;;;;;7.93;3.83;;;29.90;80.60;;;;;;5117000;27;20126;-66
2022/08/25 09:54:16;;;;;;;7.05;3.20;;;30.00;78.80;;;;;;5115048;27;20039;-66
2022/08/25 09:56:54;;;;;;;13.18;3.55;;;30.00;77.70;;;;;;5115867;27;20031;-67
2022/08/25 09:59:25;;;;;;;10.80;3.15;;;30.10;79.20;;;;;;5118974;27;20035;-67
2022/08/25 10:01:53;;;;;;;7.47;3.30;;;30.20;79.00;;;;;;5112836;27;20402;-66
2022/08/25 10:04:30;;;;;;;8.07;2.97;;;30.30;76.30;;;;;;5117721;27;20044;-66
2022/08/25 10:06:57;;;;;;;7.10;2.95;;;30.50;77.00;;;;;;5118185;28;20044;-67
2022/08/25 10:09:44;;;;;;;7.63;3.03;;;30.60;76.10;;;;;;5114438;27;20058;-68
2022/08/25 10:12:40;;;;;;;8.13;2.83;;;30.70;75.10;;;;;;5104458;28;20039;-66
2022/08/25 10:15:29;;;;;;;13.25;3.58;;;30.90;75.60;;;;;;5116636;28;20300;-67
2022/08/25 10:17:57;;;;;;;8.52;3.20;;;31.00;73.70;;;;;;5116999;28;20080;-66
2022/08/25 10:20:27;;;;;;;6.65;3.00;;;31.10;74.30;;;;;;5120269;28;20039;-66
2022/08/25 10:23:09;;;;;;;7.78;3.53;;;31.30;74.30;;;;;;5114672;28;20108;-66
2022/08/25 10:25:44;;;;;;;15.60;2.97;;;31.50;72.90;;;;;;5125093;28;20047;-66
2022/08/25 10:28:16;;;;;;;6.03;3.08;;;31.60;70.50;;;;;;5114308;28;20054;-67
2022/08/25 10:31:11;;;;;;;6.82;3.00;;;31.70;71.00;;;;;;5117827;28;20035;-65
2022/08/25 10:34:14;;;;;;;12.30;3.22;;;31.90;70.70;;;;;;5094862;28;20058;-67
2022/08/25 10:36:55;;;;;;;8.88;3.33;;;32.10;69.70;;;;;;5112963;28;20134;-65
2022/08/25 10:40:10;;;;;;;8.65;3.63;;;32.30;67.70;;;;;;5122278;27;20107;-66
2022/08/25 10:42:47;;;;;;;7.47;3.35;;;32.40;68.30;;;;;;5093162;27;20054;-67
2022/08/25 10:45:44;;;;;;;10.65;3.63;;;32.50;68.50;;;;;;5128021;27;20047;-67
2022/08/25 10:48:34;;;;;;;11.68;3.35;;;32.70;68.90;;;;;;5123661;27;20285;-67
2022/08/25 10:51:27;;;;;;;11.38;2.92;;;32.80;68.50;;;;;;5122236;27;20089;-67
2022/08/25 10:54:32;;;;;;;8.70;2.70;;;32.90;66.70;;;;;;5127511;27;20047;-67
2022/08/25 10:57:19;;;;;;;6.90;2.88;;;33.00;66.50;;;;;;5061133;27;20051;-66
2022/08/25 11:00:03;;;;;;;9.77;3.30;;;33.00;66.40;;;;;;5127848;27;20506;-66
2022/08/25 11:02:48;;;;;;;9.25;3.00;;;33.00;66.40;;;;;;5123678;27;20091;-66
2022/08/25 11:05:27;;;;;;;8.82;3.08;;;33.20;64.40;;;;;;5121871;27;20436;-66
2022/08/25 11:08:01;;;;;;;8.40;2.67;;;33.20;63.50;;;;;;5121803;27;20046;-67
2022/08/25 11:10:49;;;;;;;11.55;3.13;;;33.30;64.00;;;;;;5124699;27;20470;-67
2022/08/25 11:13:26;;;;;;;8.48;3.20;;;33.40;64.10;;;;;;5118237;27;20051;-67
2022/08/25 11:15:57;;;;;;;6.78;3.40;;;33.60;65.50;;;;;;5121578;27;20054;-67
2022/08/25 11:18:26;;;;;;;9.73;3.35;;;33.90;64.50;;;;;;5124407;27;20047;-67
2022/08/25 11:21:06;;;;;;;4.82;2.83;;;34.00;63.20;;;;;;5116876;27;20421;-68
2022/08/25 11:23:40;;;;;;;8.45;3.08;;;33.80;61.20;;;;;;5120025;27;20035;-66
2022/08/25 11:26:26;;;;;;;7.00;3.03;;;33.70;62.80;;;;;;5123154;27;20040;-67
2022/08/25 11:29:09;;;;;;;9.90;3.35;;;33.90;63.00;;;;;;5121378;27;20063;-68
2022/08/25 11:31:41;;;;;;;12.00;3.10;;;33.90;63.00;;;;;;5119471;27;20043;-67
2022/08/25 11:34:14;;;;;;;9.13;3.40;;;34.00;63.30;;;;;;5117307;27;20147;-67
2022/08/25 11:36:51;;;;;;;8.10;3.10;;;34.20;63.30;;;;;;5119572;27;20039;-67
2022/08/25 11:39:32;;;;;;;13.02;3.67;;;34.30;63.20;;;;;;5120560;27;20046;-67
2022/08/25 11:42:28;;;;;;;12.48;3.30;;;34.60;63.30;;;;;;5131437;27;20067;-68
2022/08/25 11:45:19;;;;;;;7.47;3.30;;;34.60;62.50;;;;;;5118983;27;20067;-67
2022/08/25 11:48:24;;;;;;;7.53;3.10;;;34.80;61.90;;;;;;5120544;27;20040;-68
2022/08/25 11:50:53;;;;;;;8.10;2.75;;;34.80;61.90;;;;;;5122256;27;20117;-67
2022/08/25 11:53:27;;;;;;;19.38;3.67;;;34.80;61.00;;;;;;5123800;27;20080;-65
2022/08/25 11:56:04;;;;;;;5.13;3.42;;;34.70;60.30;;;;;;5120600;27;20494;-68
2022/08/25 11:58:49;;;;;;;10.02;3.45;;;34.70;60.50;;;;;;5124629;27;20492;-67
2022/08/25 12:01:41;;;;;;;10.60;3.45;;;34.70;60.80;;;;;;5121896;27;20069;-67
2022/08/25 12:04:40;;;;;;;7.25;2.65;;;34.70;59.80;;;;;;5120823;27;20091;-66
2022/08/25 12:07:09;;;;;;;5.97;2.88;;;34.70;59.20;;;;;;5121376;27;20098;-67
2022/08/25 12:09:50;;;;;;;7.35;2.80;;;34.60;59.10;;;;;;5121853;27;20493;-67
2022/08/25 12:12:28;;;;;;;7.55;3.05;;;34.60;59.40;;;;;;5119135;27;20130;-67
2022/08/25 12:14:53;;;;;;;5.75;3.53;;;34.80;59.80;;;;;;5126071;27;20466;-68
2022/08/25 12:17:37;;;;;;;19.60;3.67;;;34.90;59.30;;;;;;5120272;27;20046;-66
2022/08/25 12:20:03;;;;;;;13.57;3.15;;;35.00;57.10;;;;;;5131326;27;20035;-67
2022/08/25 12:22:32;;;;;;;22.42;3.10;;;35.10;58.10;;;;;;5134392;27;20077;-67
2022/08/25 12:25:12;;;;;;;9.88;2.75;;;34.90;57.90;;;;;;5134571;27;20053;-67
2022/08/25 12:27:47;;;;;;;7.22;3.00;;;34.90;58.10;;;;;;5124582;27;20141;-67
2022/08/25 12:30:27;;;;;;;7.10;3.03;;;34.50;57.50;;;;;;5120398;27;20082;-67
2022/08/25 12:33:17;;;;;;;7.32;3.28;;;34.50;57.50;;;;;;5123978;27;20039;-68
2022/08/25 12:36:00;;;;;;;10.88;3.47;;;34.40;57.40;;;;;;5124856;27;20123;-68
2022/08/25 12:38:37;;;;;;;17.35;2.95;;;34.60;57.80;;;;;;5119978;27;20096;-68
2022/08/25 12:41:12;;;;;;;12.10;3.47;;;34.70;58.30;;;;;;5118640;27;20045;-67
2022/08/25 12:43:41;;;;;;;10.43;3.10;;;34.70;56.90;;;;;;5112191;27;20075;-67
2022/08/25 12:46:26;;;;;;;14.65;3.33;;;34.80;57.00;;;;;;5119995;27;20031;-66
2022/08/25 12:48:55;;;;;;;8.45;2.80;;;34.90;57.30;;;;;;5120757;27;20177;-67
2022/08/25 12:51:48;;;;;;;10.13;2.90;;;35.00;58.00;;;;;;5118754;27;20043;-67
2022/08/25 12:54:38;;;;;;;13.68;3.03;;;35.20;57.30;;;;;;5114783;27;20647;-67
2022/08/25 12:57:39;;;;;;;9.55;2.53;;;35.20;56.30;;;;;;5120156;27;20039;-66
2022/08/25 13:00:25;;;;;;;11.73;3.22;;;35.30;55.00;;;;;;5133301;27;20043;-66
2022/08/25 13:03:08;;;;;;;13.50;3.33;;;35.50;55.20;;;;;;5116735;27;20546;-67
2022/08/25 13:05:34;;;;;;;11.07;2.78;;;35.50;55.30;;;;;;5123825;27;20397;-66
2022/08/25 13:08:24;;;;;;;7.47;2.83;;;35.60;54.80;;;;;;5114212;27;20056;-67
2022/08/25 13:11:11;;;;;;;7.82;2.95;;;35.60;54.40;;;;;;5108387;27;20051;-68
2022/08/25 13:14:39;;;;;;;6.63;2.90;;;35.50;54.30;;;;;;5125718;27;20039;-66
2022/08/25 13:17:06;;;;;;;19.08;3.10;;;35.50;54.80;;;;;;5055175;28;20522;-66